createdAt,value
2019-05-15T00:01:41.115Z,7.40
2019-05-15T00:04:09.477Z,7.20
2019-05-15T00:06:39.108Z,7.00
2019-05-15T00:09:08.346Z,6.80
2019-05-15T00:11:39.029Z,6.70
2019-05-15T00:14:08.697Z,6.70
2019-05-15T00:16:38.661Z,6.70
2019-05-15T00:19:08.647Z,6.60
2019-05-15T00:21:38.390Z,6.60
2019-05-15T00:24:12.730Z,6.50
2019-05-15T00:26:38.606Z,6.50
2019-05-15T00:29:14.770Z,6.40
2019-05-15T00:31:38.909Z,6.40
2019-05-15T00:34:12.487Z,6.50
2019-05-15T00:36:38.596Z,6.40
2019-05-15T00:39:08.445Z,6.40
2019-05-15T00:41:50.467Z,6.40
2019-05-15T00:44:09.251Z,6.40
2019-05-15T00:46:38.574Z,6.50
2019-05-15T00:49:08.701Z,6.50
2019-05-15T00:51:39.001Z,6.50
2019-05-15T00:54:08.493Z,6.50
2019-05-15T00:56:39.130Z,6.50
2019-05-15T00:59:08.418Z,6.40
2019-05-15T01:01:38.209Z,6.20
2019-05-15T01:04:08.023Z,6.20
2019-05-15T01:06:38.969Z,6.10
2019-05-15T01:09:08.463Z,6.00
2019-05-15T01:11:38.221Z,5.90
2019-05-15T01:14:11.909Z,5.90
2019-05-15T01:16:38.434Z,5.90
2019-05-15T01:19:09.267Z,5.90
2019-05-15T01:21:38.636Z,5.90
2019-05-15T01:24:08.454Z,5.80
2019-05-15T01:26:38.495Z,5.80
2019-05-15T01:29:09.094Z,5.80
2019-05-15T01:31:38.222Z,5.80
2019-05-15T01:34:09.005Z,5.70
2019-05-15T01:36:38.357Z,5.70
2019-05-15T01:39:08.063Z,5.60
2019-05-15T01:41:38.696Z,5.50
2019-05-15T01:44:08.819Z,5.40
2019-05-15T01:46:39.383Z,5.30
2019-05-15T01:49:08.489Z,5.20
2019-05-15T01:51:38.502Z,5.20
2019-05-15T01:54:09.067Z,5.20
2019-05-15T01:56:38.763Z,5.20
2019-05-15T01:59:08.644Z,5.20
2019-05-15T02:01:39.270Z,5.30
2019-05-15T02:04:08.461Z,5.30
2019-05-15T02:06:39.153Z,5.30
2019-05-15T02:09:08.772Z,5.10
2019-05-15T02:11:38.340Z,5.10
2019-05-15T02:14:08.335Z,5.10
2019-05-15T02:16:39.317Z,5.20
2019-05-15T02:19:08.971Z,5.20
2019-05-15T02:21:38.160Z,5.20
2019-05-15T02:24:07.969Z,5.30
2019-05-15T02:26:38.839Z,5.40
2019-05-15T02:29:10.527Z,5.40
2019-05-15T02:31:39.313Z,5.30
2019-05-15T02:34:10.194Z,5.30
2019-05-15T02:36:40.223Z,5.30
2019-05-15T02:39:09.571Z,5.20
2019-05-15T02:41:39.620Z,5.30
2019-05-15T02:44:10.968Z,5.20
2019-05-15T02:46:39.711Z,5.20
2019-05-15T02:49:09.017Z,5.20
2019-05-15T02:51:39.843Z,5.20
2019-05-15T02:54:10.261Z,5.20
2019-05-15T02:56:39.643Z,5.30
2019-05-15T02:59:09.220Z,5.30
2019-05-15T03:01:40.389Z,5.30
2019-05-15T03:04:09.420Z,5.40
2019-05-15T03:06:39.129Z,5.40
2019-05-15T03:09:09.463Z,5.40
2019-05-15T03:11:40.827Z,5.30
2019-05-15T03:14:09.687Z,5.30
2019-05-15T03:16:39.451Z,5.20
2019-05-15T03:19:10.049Z,5.10
2019-05-15T03:21:39.134Z,5.00
2019-05-15T03:24:10.131Z,5.00
2019-05-15T03:26:39.583Z,5.00
2019-05-15T03:29:09.840Z,5.00
2019-05-15T03:31:53.395Z,5.00
2019-05-15T03:34:20.471Z,5.00
2019-05-15T03:36:45.461Z,5.10
2019-05-15T03:39:11.393Z,5.00
2019-05-15T03:41:40.786Z,5.00
2019-05-15T03:44:09.823Z,4.90
2019-05-15T03:46:39.875Z,4.90
2019-05-15T03:49:09.455Z,4.90
2019-05-15T03:51:42.521Z,5.00
2019-05-15T03:54:09.489Z,5.00
2019-05-15T03:56:39.439Z,5.00
2019-05-15T03:59:09.559Z,5.10
2019-05-15T04:01:43.542Z,5.10
2019-05-15T04:04:09.686Z,5.10
2019-05-15T04:06:39.321Z,5.10
2019-05-15T04:09:09.689Z,5.10
2019-05-15T04:11:39.025Z,5.20
2019-05-15T04:14:10.224Z,5.00
2019-05-15T04:16:39.241Z,4.90
2019-05-15T04:19:09.723Z,4.70
2019-05-15T04:21:43.911Z,4.70
2019-05-15T04:24:10.019Z,4.70
2019-05-15T04:26:39.526Z,4.60
2019-05-15T04:29:09.885Z,4.60
2019-05-15T04:31:51.947Z,4.70
2019-05-15T04:34:09.659Z,4.70
2019-05-15T04:36:40.492Z,4.70
2019-05-15T04:39:09.988Z,4.70
2019-05-15T04:41:39.514Z,4.70
2019-05-15T04:44:10.251Z,4.70
2019-05-15T04:46:39.396Z,4.60
2019-05-15T04:49:09.236Z,4.60
2019-05-15T04:51:39.032Z,4.60
2019-05-15T04:54:09.560Z,4.70
2019-05-15T04:56:39.920Z,4.80
2019-05-15T04:59:10.137Z,4.90
2019-05-15T05:01:40.395Z,5.00
2019-05-15T05:04:09.675Z,5.10
2019-05-15T05:06:39.199Z,5.30
2019-05-15T05:09:09.278Z,5.40
2019-05-15T05:11:38.693Z,5.50
2019-05-15T05:14:08.543Z,5.60
2019-05-15T05:16:39.296Z,5.70
2019-05-15T05:19:09.096Z,5.80
2019-05-15T05:21:38.658Z,5.80
2019-05-15T05:24:07.992Z,5.90
2019-05-15T05:26:38.217Z,6.00
2019-05-15T05:29:08.498Z,6.00
2019-05-15T05:31:39.216Z,6.10
2019-05-15T05:34:08.378Z,6.20
2019-05-15T05:36:38.642Z,6.20
2019-05-15T05:39:09.640Z,6.30
2019-05-15T05:41:39.206Z,6.40
2019-05-15T05:44:08.291Z,6.50
2019-05-15T05:46:39.543Z,6.60
2019-05-15T05:49:08.187Z,6.70
2019-05-15T05:51:38.690Z,6.70
2019-05-15T05:54:08.434Z,6.80
2019-05-15T05:56:37.865Z,6.80
2019-05-15T05:59:09.138Z,6.80
2019-05-15T06:01:43.782Z,6.80
2019-05-15T06:04:08.427Z,6.70
2019-05-15T06:06:38.403Z,6.70
2019-05-15T06:09:09.209Z,6.70
2019-05-15T06:11:38.395Z,6.70
2019-05-15T06:14:08.812Z,6.80
2019-05-15T06:16:38.753Z,6.90
2019-05-15T06:19:08.345Z,7.00
2019-05-15T06:21:39.155Z,7.20
2019-05-15T06:24:13.062Z,7.30
2019-05-15T06:26:38.749Z,7.50
2019-05-15T06:29:08.818Z,7.50
2019-05-15T06:31:38.839Z,7.60
2019-05-15T06:34:08.330Z,7.70
2019-05-15T06:36:39.266Z,7.70
2019-05-15T06:39:08.526Z,7.90
2019-05-15T06:41:39.026Z,8.00
2019-05-15T06:44:08.281Z,8.10
2019-05-15T06:46:39.282Z,8.20
2019-05-15T06:49:08.450Z,8.20
2019-05-15T06:51:37.963Z,8.20
2019-05-15T06:54:08.798Z,8.30
2019-05-15T06:56:39.047Z,8.30
2019-05-15T06:59:08.761Z,8.30
2019-05-15T07:01:38.546Z,8.20
2019-05-15T07:04:08.453Z,8.20
2019-05-15T07:06:38.168Z,8.20
2019-05-15T07:09:09.375Z,8.30
2019-05-15T07:11:38.830Z,8.40
2019-05-15T07:14:08.870Z,8.40
2019-05-15T07:16:38.981Z,8.40
2019-05-15T07:19:08.400Z,8.50
2019-05-15T07:21:38.883Z,8.70
2019-05-15T07:24:09.246Z,9.10
2019-05-15T07:26:39.174Z,9.20
2019-05-15T07:29:08.427Z,9.30
2019-05-15T07:31:38.430Z,9.70
2019-05-15T07:34:08.339Z,10.10
2019-05-15T07:36:39.062Z,10.30
2019-05-15T07:39:08.756Z,10.40
2019-05-15T07:41:39.235Z,10.50
2019-05-15T07:44:08.368Z,10.50
2019-05-15T07:46:38.245Z,10.30
2019-05-15T07:49:09.097Z,10.30
2019-05-15T07:51:38.323Z,10.30
2019-05-15T07:54:09.256Z,10.50
2019-05-15T07:56:38.217Z,10.80
2019-05-15T07:59:08.058Z,11.20
2019-05-15T08:01:38.610Z,11.30
2019-05-15T08:04:22.621Z,11.20
2019-05-15T08:06:38.943Z,11.10
2019-05-15T08:09:08.493Z,11.00
2019-05-15T08:11:39.079Z,10.80
2019-05-15T08:14:08.924Z,10.60
2019-05-15T08:16:39.551Z,10.40
2019-05-15T08:19:08.777Z,10.30
2019-05-15T08:21:38.463Z,10.40
2019-05-15T08:24:08.474Z,10.40
2019-05-15T08:26:38.031Z,10.20
2019-05-15T08:29:08.551Z,9.90
2019-05-15T08:31:38.844Z,10.00
2019-05-15T08:34:13.549Z,10.10
2019-05-15T08:36:38.828Z,10.30
2019-05-15T08:39:08.499Z,10.40
2019-05-15T08:41:39.097Z,10.50
2019-05-15T08:44:08.714Z,10.70
2019-05-15T08:46:38.739Z,10.70
2019-05-15T08:49:09.197Z,10.80
2019-05-15T08:51:38.400Z,10.90
2019-05-15T08:54:08.512Z,11.00
2019-05-15T08:56:39.359Z,11.00
2019-05-15T08:59:08.918Z,11.00
2019-05-15T09:01:38.350Z,11.00
2019-05-15T09:04:08.934Z,11.00
2019-05-15T09:06:41.285Z,11.00
2019-05-15T09:09:09.557Z,10.90
2019-05-15T09:11:39.394Z,10.80
2019-05-15T09:14:08.540Z,10.80
2019-05-15T09:16:38.724Z,10.80
2019-05-15T09:19:08.433Z,10.70
2019-05-15T09:21:38.746Z,10.80
2019-05-15T09:24:09.456Z,10.90
2019-05-15T09:26:40.420Z,11.00
2019-05-15T09:29:09.567Z,11.10
2019-05-15T09:31:39.152Z,11.10
2019-05-15T09:34:09.146Z,11.00
2019-05-15T09:36:42.272Z,11.00
2019-05-15T09:39:09.007Z,11.20
2019-05-15T09:41:38.127Z,11.30
2019-05-15T09:44:08.023Z,11.40
2019-05-15T09:46:38.288Z,11.50
2019-05-15T09:49:08.874Z,11.50
2019-05-15T09:51:38.481Z,11.40
2019-05-15T09:54:08.143Z,11.40
2019-05-15T09:56:38.514Z,11.60
2019-05-15T09:59:08.944Z,11.80
2019-05-15T10:01:39.470Z,11.80
2019-05-15T10:04:08.648Z,11.90
2019-05-15T10:06:39.119Z,11.80
2019-05-15T10:09:09.077Z,11.60
2019-05-15T10:11:38.404Z,11.70
2019-05-15T10:14:09.738Z,11.70
2019-05-15T10:16:38.208Z,11.60
2019-05-15T10:19:08.980Z,11.70
2019-05-15T10:21:39.970Z,11.80
2019-05-15T10:24:09.493Z,12.00
2019-05-15T10:26:39.326Z,12.10
2019-05-15T10:29:09.130Z,12.10
2019-05-15T10:31:38.907Z,12.20
2019-05-15T10:34:09.161Z,12.10
2019-05-15T10:36:38.736Z,12.00
2019-05-15T10:39:08.471Z,12.00
2019-05-15T10:41:38.785Z,12.00
2019-05-15T10:44:09.117Z,12.00
2019-05-15T10:46:38.501Z,12.10
2019-05-15T10:49:08.644Z,12.20
2019-05-15T10:51:39.661Z,12.30
2019-05-15T10:54:08.754Z,12.50
2019-05-15T10:56:38.519Z,12.30
2019-05-15T10:59:08.541Z,12.00
2019-05-15T11:01:38.625Z,11.80
2019-05-15T11:04:09.297Z,11.70
2019-05-15T11:06:38.518Z,11.90
2019-05-15T11:09:08.492Z,12.10
2019-05-15T11:11:37.724Z,12.30
2019-05-15T11:14:09.074Z,12.30
2019-05-15T11:16:39.084Z,12.50
2019-05-15T11:19:08.252Z,12.50
2019-05-15T11:21:37.119Z,12.50
2019-05-15T11:24:08.579Z,12.60
2019-05-15T11:26:38.920Z,12.60
2019-05-15T11:29:09.643Z,12.60
2019-05-15T11:31:39.270Z,12.70
2019-05-15T11:34:09.348Z,12.70
2019-05-15T11:36:38.774Z,12.50
2019-05-15T11:39:08.417Z,12.50
2019-05-15T11:41:38.702Z,12.70
2019-05-15T11:44:07.860Z,12.80
2019-05-15T11:46:39.134Z,12.70
2019-05-15T11:49:09.346Z,12.90
2019-05-15T11:51:38.477Z,13.00
2019-05-15T11:54:08.235Z,13.10
2019-05-15T11:56:39.134Z,13.20
2019-05-15T11:59:08.580Z,13.40
2019-05-15T12:01:38.288Z,13.40
2019-05-15T12:04:09.230Z,13.40
2019-05-15T12:06:38.594Z,13.50
2019-05-15T12:09:09.098Z,13.70
2019-05-15T12:11:41.098Z,13.80
2019-05-15T12:14:09.192Z,14.00
2019-05-15T12:16:39.817Z,14.30
2019-05-15T12:19:13.586Z,14.70
2019-05-15T12:21:39.828Z,15.10
2019-05-15T12:24:09.078Z,15.00
2019-05-15T12:26:39.408Z,15.10
2019-05-15T12:31:39.685Z,14.80
2019-05-15T12:34:09.228Z,14.90
2019-05-15T12:59:45.088Z,15.10
2019-05-15T13:01:45.929Z,15.30
2019-05-15T13:04:14.937Z,15.10
2019-05-15T13:06:49.406Z,15.30
2019-05-15T13:09:14.691Z,15.40
2019-05-15T13:11:43.724Z,15.40
2019-05-15T13:14:12.738Z,15.10
2019-05-15T13:16:41.758Z,15.00
2019-05-15T13:19:10.816Z,14.70
2019-05-15T13:21:39.865Z,14.60
2019-05-15T13:24:08.877Z,14.50
2019-05-15T13:26:38.496Z,14.60
2019-05-15T13:29:08.919Z,14.70
2019-05-15T13:31:38.378Z,14.50
2019-05-15T13:34:08.113Z,14.60
2019-05-15T13:36:39.257Z,14.80
2019-05-15T13:39:07.976Z,14.80
2019-05-15T13:41:38.593Z,14.70
2019-05-15T13:44:08.995Z,14.70
2019-05-15T13:46:38.226Z,14.70
2019-05-15T13:49:08.346Z,14.20
2019-05-15T13:51:38.389Z,14.00
2019-05-15T13:54:08.638Z,14.00
2019-05-15T13:56:38.201Z,14.00
2019-05-15T13:59:08.020Z,13.90
2019-05-15T14:01:39.351Z,13.90
2019-05-15T14:04:08.586Z,13.90
2019-05-15T14:06:38.096Z,13.90
2019-05-15T14:09:08.956Z,14.10
2019-05-15T14:11:39.035Z,14.00
2019-05-15T14:14:08.175Z,14.10
2019-05-15T14:16:38.396Z,14.10
2019-05-15T14:19:08.344Z,14.10
2019-05-15T14:21:38.070Z,14.10
2019-05-15T14:24:08.988Z,14.10
2019-05-15T14:26:37.792Z,14.10
2019-05-15T14:29:08.964Z,14.00
2019-05-15T14:31:39.552Z,14.10
2019-05-15T14:34:08.902Z,14.10
2019-05-15T14:36:38.042Z,14.20
2019-05-15T14:39:08.147Z,13.90
2019-05-15T14:41:38.241Z,13.90
2019-05-15T14:44:17.406Z,13.80
2019-05-15T14:46:38.335Z,13.70
2019-05-15T14:49:09.046Z,13.70
2019-05-15T14:51:39.161Z,13.70
2019-05-15T14:54:09.077Z,13.70
2019-05-15T14:56:38.452Z,13.80
2019-05-15T14:59:09.212Z,13.80
2019-05-15T15:01:38.530Z,13.80
2019-05-15T15:04:08.899Z,13.60
2019-05-15T15:06:38.277Z,13.50
2019-05-15T15:09:08.505Z,13.40
2019-05-15T15:11:38.551Z,13.20
2019-05-15T15:14:08.624Z,13.10
2019-05-15T15:16:38.498Z,13.00
2019-05-15T15:19:07.748Z,12.90
2019-05-15T15:21:38.411Z,12.80
2019-05-15T15:24:08.315Z,12.70
2019-05-15T15:26:39.114Z,12.60
2019-05-15T15:29:08.623Z,12.50
2019-05-15T15:31:38.988Z,12.60
2019-05-15T15:34:08.712Z,12.60
2019-05-15T15:36:38.101Z,12.60
2019-05-15T15:39:08.275Z,12.70
2019-05-15T15:41:39.041Z,12.70
2019-05-15T15:44:08.702Z,12.70
2019-05-15T15:46:39.566Z,12.60
2019-05-15T15:49:08.924Z,12.50
2019-05-15T15:51:38.176Z,12.40
2019-05-15T15:54:08.481Z,12.40
2019-05-15T15:56:39.174Z,12.50
2019-05-15T15:59:08.914Z,12.50
2019-05-15T16:01:38.900Z,12.50
2019-05-15T16:04:08.608Z,12.50
2019-05-15T16:06:38.773Z,12.60
2019-05-15T16:09:08.587Z,12.50
2019-05-15T16:11:38.613Z,12.50
2019-05-15T16:14:09.128Z,12.40
2019-05-15T16:16:38.470Z,12.40
2019-05-15T16:19:07.524Z,12.30
2019-05-15T16:21:39.173Z,12.40
2019-05-15T16:24:17.371Z,12.20
2019-05-15T16:26:38.347Z,12.10
2019-05-15T16:29:09.172Z,12.10
2019-05-15T16:31:38.539Z,12.10
2019-05-15T16:34:08.257Z,12.00
2019-05-15T16:36:38.492Z,12.00
2019-05-15T16:39:11.372Z,11.90
2019-05-15T16:41:38.449Z,11.90
2019-05-15T16:44:08.600Z,11.80
2019-05-15T16:46:39.139Z,11.80
2019-05-15T16:49:08.374Z,11.70
2019-05-15T16:51:38.316Z,11.80
2019-05-15T16:54:08.789Z,11.80
2019-05-15T16:56:40.031Z,11.90
2019-05-15T16:59:08.668Z,11.80
2019-05-15T17:01:39.327Z,11.80
2019-05-15T17:04:08.600Z,11.70
2019-05-15T17:06:38.704Z,11.60
2019-05-15T17:09:20.839Z,11.50
2019-05-15T17:11:39.438Z,11.50
2019-05-15T17:14:08.724Z,11.50
2019-05-15T17:16:38.760Z,11.50
2019-05-15T17:19:08.706Z,11.40
2019-05-15T17:21:37.840Z,11.40
2019-05-15T17:24:08.723Z,11.50
2019-05-15T17:26:37.453Z,11.40
2019-05-15T17:29:08.794Z,11.40
2019-05-15T17:31:37.977Z,11.40
2019-05-15T17:34:07.129Z,11.40
2019-05-15T17:36:38.121Z,11.30
2019-05-15T17:39:08.884Z,11.30
2019-05-15T17:41:39.030Z,11.30
2019-05-15T17:44:08.271Z,11.20
2019-05-15T17:46:38.474Z,11.20
2019-05-15T17:49:14.998Z,11.20
2019-05-15T17:51:38.509Z,11.20
2019-05-15T17:54:08.884Z,11.20
2019-05-15T17:56:39.292Z,11.20
2019-05-15T17:59:08.760Z,11.10
2019-05-15T18:01:38.425Z,11.10
2019-05-15T18:04:08.407Z,11.00
2019-05-15T18:06:39.843Z,11.00
2019-05-15T18:09:08.816Z,11.00
2019-05-15T18:11:38.414Z,10.90
2019-05-15T18:14:08.948Z,11.00
2019-05-15T18:16:40.880Z,10.90
2019-05-15T18:19:09.884Z,10.90
2019-05-15T18:21:38.924Z,10.90
2019-05-15T18:24:09.227Z,10.90
2019-05-15T18:26:38.888Z,10.90
2019-05-15T18:29:09.151Z,10.80
2019-05-15T18:31:38.359Z,10.80
2019-05-15T18:34:08.289Z,10.80
2019-05-15T18:36:39.202Z,10.70
2019-05-15T18:39:08.733Z,10.70
2019-05-15T18:41:37.945Z,10.70
2019-05-15T18:44:06.994Z,10.70
2019-05-15T18:46:38.053Z,10.70
2019-05-15T18:49:06.797Z,10.70
2019-05-15T18:51:35.848Z,10.60
2019-05-15T18:54:04.864Z,10.50
2019-05-15T18:56:33.816Z,10.40
2019-05-15T18:59:02.841Z,10.40
2019-05-15T19:01:31.776Z,10.40
2019-05-15T19:04:00.868Z,10.40
2019-05-15T19:06:29.869Z,10.40
2019-05-15T19:08:58.898Z,10.30
2019-05-15T19:11:28.913Z,10.30
2019-05-15T19:13:58.902Z,10.30
2019-05-15T19:16:28.217Z,10.30
2019-05-15T19:18:58.785Z,10.30
2019-05-15T19:21:28.004Z,10.30
2019-05-15T19:23:58.401Z,10.30
2019-05-15T19:26:29.022Z,10.20
2019-05-15T19:28:59.228Z,10.30
2019-05-15T19:31:30.765Z,10.30
2019-05-15T19:33:59.191Z,10.20
2019-05-15T19:36:28.402Z,10.20
2019-05-15T19:38:57.459Z,10.20
2019-05-15T19:41:28.714Z,10.10
2019-05-15T19:43:58.151Z,10.20
2019-05-15T19:46:28.294Z,10.20
2019-05-15T19:48:58.179Z,10.20
2019-05-15T19:51:29.007Z,10.20
2019-05-15T19:53:58.855Z,10.20
2019-05-15T19:56:27.945Z,10.20
2019-05-15T19:58:58.174Z,10.20
2019-05-15T20:01:28.207Z,10.10
2019-05-15T20:03:58.588Z,10.10
2019-05-15T20:06:28.129Z,10.10
2019-05-15T20:08:58.625Z,10.00
2019-05-15T20:11:28.019Z,10.00
2019-05-15T20:13:58.383Z,10.00
2019-05-15T20:16:28.474Z,10.00
2019-05-15T20:18:58.096Z,9.90
2019-05-15T20:21:28.975Z,9.90
2019-05-15T20:23:58.083Z,9.90
2019-05-15T20:26:28.704Z,9.90
2019-05-15T20:28:57.848Z,9.80
2019-05-15T20:31:28.462Z,9.80
2019-05-15T20:34:05.201Z,9.90
2019-05-15T20:36:29.882Z,9.90
2019-05-15T20:38:58.964Z,9.80
2019-05-15T20:41:27.957Z,9.80
2019-05-15T20:43:58.296Z,9.80
2019-05-15T20:46:28.931Z,9.70
2019-05-15T20:48:58.214Z,9.70
2019-05-15T20:51:29.053Z,9.60
2019-05-15T20:53:58.205Z,9.60
2019-05-15T20:56:28.188Z,9.50
2019-05-15T20:58:58.313Z,9.50
2019-05-15T21:01:28.812Z,9.50
2019-05-15T21:03:59.433Z,9.50
2019-05-15T21:06:28.731Z,9.50
2019-05-15T21:08:57.940Z,9.50
2019-05-15T21:11:27.334Z,9.50
2019-05-15T21:13:58.097Z,9.50
2019-05-15T21:16:27.998Z,9.50
2019-05-15T21:18:57.676Z,9.40
2019-05-15T21:21:28.235Z,9.30
2019-05-15T21:23:58.006Z,9.20
2019-05-15T21:26:29.160Z,9.10
2019-05-15T21:28:58.696Z,9.00
2019-05-15T21:31:27.676Z,9.00
2019-05-15T21:33:58.753Z,8.90
2019-05-15T21:36:28.284Z,8.90
2019-05-15T21:38:58.617Z,8.90
2019-05-15T21:41:27.678Z,8.80
2019-05-15T21:43:59.295Z,8.70
2019-05-15T21:46:27.608Z,8.60
2019-05-15T21:48:57.690Z,8.60
2019-05-15T21:51:28.129Z,8.50
2019-05-15T21:53:58.247Z,8.60
2019-05-15T21:56:28.072Z,8.50
2019-05-15T21:58:58.097Z,8.40
2019-05-15T22:01:28.732Z,8.20
2019-05-15T22:03:58.956Z,8.20
2019-05-15T22:06:29.268Z,8.20
2019-05-15T22:08:58.484Z,8.20
2019-05-15T22:11:29.743Z,8.20
2019-05-15T22:13:58.688Z,8.10
2019-05-15T22:16:28.864Z,8.00
2019-05-15T22:18:58.325Z,7.90
2019-05-15T22:21:27.431Z,7.90
2019-05-15T22:23:59.835Z,7.80
2019-05-15T22:26:29.067Z,7.80
2019-05-15T22:28:58.478Z,7.80
2019-05-15T22:31:27.759Z,7.80
2019-05-15T22:33:58.526Z,7.80
2019-05-15T22:36:28.050Z,7.80
2019-05-15T22:38:59.398Z,7.70
2019-05-15T22:41:28.537Z,7.70
2019-05-15T22:43:57.680Z,7.60
2019-05-15T22:46:28.864Z,7.50
2019-05-15T22:48:59.007Z,7.50
2019-05-15T22:51:28.898Z,7.30
2019-05-15T22:53:58.125Z,7.20
2019-05-15T22:56:29.745Z,7.10
2019-05-15T22:58:58.855Z,7.00
2019-05-15T23:01:27.880Z,7.00
2019-05-15T23:03:58.371Z,7.00
2019-05-15T23:06:28.224Z,7.00
2019-05-15T23:08:58.066Z,7.00
2019-05-15T23:11:29.725Z,7.00
2019-05-15T23:13:58.675Z,6.90
2019-05-15T23:16:28.358Z,6.90
2019-05-15T23:18:58.813Z,6.80
2019-05-15T23:21:28.781Z,6.70
2019-05-15T23:23:57.912Z,6.60
2019-05-15T23:26:28.253Z,6.50
2019-05-15T23:28:58.574Z,6.50
2019-05-15T23:31:28.100Z,6.50
2019-05-15T23:33:57.104Z,6.50
2019-05-15T23:36:28.343Z,6.60
2019-05-15T23:38:58.401Z,6.60
2019-05-15T23:41:28.106Z,6.50
2019-05-15T23:43:57.225Z,6.40
2019-05-15T23:46:26.183Z,6.40
2019-05-15T23:48:55.124Z,6.30
2019-05-15T23:51:24.148Z,6.30
2019-05-15T23:53:53.209Z,6.20
2019-05-15T23:56:22.244Z,6.20
2019-05-15T23:58:51.177Z,6.20
